sensor_id;sensor_type;location;lat;lon;timestamp;pressure;altitude;pressure_sealevel;temperature;humidity
67818;BME280;54614;47.576;7.524;2022-11-15T00:00:55;98256.78;;;24.91;37.24
67818;BME280;54614;47.576;7.524;2022-11-15T00:03:25;98262.06;;;25.22;36.90
67818;BME280;54614;47.576;7.524;2022-11-15T00:05:51;98260.13;;;25.11;37.01
67818;BME280;54614;47.576;7.524;2022-11-15T00:08:17;98251.59;;;25.14;36.89
67818;BME280;54614;47.576;7.524;2022-11-15T00:10:43;98245.63;;;25.12;36.87
67818;BME280;54614;47.576;7.524;2022-11-15T00:13:11;98237.16;;;25.09;37.18
67818;BME280;54614;47.576;7.524;2022-11-15T00:15:40;98242.84;;;25.00;37.19
67818;BME280;54614;47.576;7.524;2022-11-15T00:18:15;98243.88;;;24.99;37.11
67818;BME280;54614;47.576;7.524;2022-11-15T00:20:42;98241.59;;;24.96;37.22
67818;BME280;54614;47.576;7.524;2022-11-15T00:23:08;98239.25;;;25.06;37.02
67818;BME280;54614;47.576;7.524;2022-11-15T00:25:34;98232.38;;;25.11;36.91
67818;BME280;54614;47.576;7.524;2022-11-15T00:28:01;98223.88;;;25.14;36.85
67818;BME280;54614;47.576;7.524;2022-11-15T00:30:28;98225.34;;;25.10;37.10
67818;BME280;54614;47.576;7.524;2022-11-15T00:32:54;98224.91;;;25.13;36.73
67818;BME280;54614;47.576;7.524;2022-11-15T00:35:21;98225.34;;;25.28;36.44
67818;BME280;54614;47.576;7.524;2022-11-15T00:37:47;98216.16;;;25.35;36.37
67818;BME280;54614;47.576;7.524;2022-11-15T00:40:14;98221.09;;;25.20;36.57
67818;BME280;54614;47.576;7.524;2022-11-15T00:42:41;98221.25;;;25.07;38.35
67818;BME280;54614;47.576;7.524;2022-11-15T00:45:08;98225.75;;;24.88;38.46
67818;BME280;54614;47.576;7.524;2022-11-15T00:47:34;98215.47;;;26.07;35.82
67818;BME280;54614;47.576;7.524;2022-11-15T00:50:00;98218.09;;;25.95;35.37
67818;BME280;54614;47.576;7.524;2022-11-15T00:52:26;98215.72;;;25.87;35.72
67818;BME280;54614;47.576;7.524;2022-11-15T00:54:52;98219.78;;;25.59;36.02
67818;BME280;54614;47.576;7.524;2022-11-15T00:57:18;98215.53;;;25.70;35.96
67818;BME280;54614;47.576;7.524;2022-11-15T00:59:43;98216.59;;;25.51;35.99
67818;BME280;54614;47.576;7.524;2022-11-15T01:02:09;98218.91;;;25.47;36.20
67818;BME280;54614;47.576;7.524;2022-11-15T01:04:35;98211.31;;;25.26;36.56
67818;BME280;54614;47.576;7.524;2022-11-15T01:07:01;98205.91;;;25.26;36.61
67818;BME280;54614;47.576;7.524;2022-11-15T01:09:26;98212.19;;;25.20;36.68
67818;BME280;54614;47.576;7.524;2022-11-15T01:11:52;98200.31;;;25.09;36.88
67818;BME280;54614;47.576;7.524;2022-11-15T01:14:18;98196.50;;;25.35;36.36
67818;BME280;54614;47.576;7.524;2022-11-15T01:16:44;98197.25;;;25.24;36.31
67818;BME280;54614;47.576;7.524;2022-11-15T01:19:10;98200.38;;;25.39;36.43
67818;BME280;54614;47.576;7.524;2022-11-15T01:21:36;98195.28;;;25.31;36.11
67818;BME280;54614;47.576;7.524;2022-11-15T01:24:01;98196.28;;;25.18;36.75
67818;BME280;54614;47.576;7.524;2022-11-15T01:26:27;98187.59;;;25.16;36.47
67818;BME280;54614;47.576;7.524;2022-11-15T01:28:53;98186.03;;;25.27;36.29
67818;BME280;54614;47.576;7.524;2022-11-15T01:31:21;98184.09;;;25.16;36.62
67818;BME280;54614;47.576;7.524;2022-11-15T01:33:48;98185.56;;;25.30;36.54
67818;BME280;54614;47.576;7.524;2022-11-15T01:36:20;98188.03;;;25.31;36.28
67818;BME280;54614;47.576;7.524;2022-11-15T01:38:57;98195.88;;;25.33;36.10
67818;BME280;54614;47.576;7.524;2022-11-15T01:41:32;98194.19;;;25.20;36.56
67818;BME280;54614;47.576;7.524;2022-11-15T01:47:20;98191.94;;;25.35;35.77
67818;BME280;54614;47.576;7.524;2022-11-15T01:50:12;98190.66;;;25.20;36.28
67818;BME280;54614;47.576;7.524;2022-11-15T01:52:40;98198.22;;;25.29;36.14
67818;BME280;54614;47.576;7.524;2022-11-15T01:55:21;98196.94;;;25.32;36.16
67818;BME280;54614;47.576;7.524;2022-11-15T01:57:53;98182.56;;;25.38;36.13
67818;BME280;54614;47.576;7.524;2022-11-15T02:00:20;98183.94;;;25.29;36.03
67818;BME280;54614;47.576;7.524;2022-11-15T02:02:46;98183.94;;;25.29;36.42
67818;BME280;54614;47.576;7.524;2022-11-15T02:05:12;98177.19;;;25.38;36.24
67818;BME280;54614;47.576;7.524;2022-11-15T02:07:38;98180.78;;;25.32;36.17
67818;BME280;54614;47.576;7.524;2022-11-15T02:10:14;98173.09;;;25.35;36.06
67818;BME280;54614;47.576;7.524;2022-11-15T02:12:42;98164.63;;;25.32;36.08
67818;BME280;54614;47.576;7.524;2022-11-15T02:15:10;98157.28;;;25.39;35.76
67818;BME280;54614;47.576;7.524;2022-11-15T02:18:20;98152.81;;;25.33;36.16
67818;BME280;54614;47.576;7.524;2022-11-15T02:24:00;98160.06;;;25.32;36.19
67818;BME280;54614;47.576;7.524;2022-11-15T02:32:38;98143.78;;;25.27;36.12
67818;BME280;54614;47.576;7.524;2022-11-15T02:35:43;98139.00;;;25.29;36.19
67818;BME280;54614;47.576;7.524;2022-11-15T02:41:07;98136.97;;;25.25;36.37
67818;BME280;54614;47.576;7.524;2022-11-15T02:43:54;98148.19;;;25.22;36.07
67818;BME280;54614;47.576;7.524;2022-11-15T02:46:46;98148.13;;;25.28;36.45
67818;BME280;54614;47.576;7.524;2022-11-15T02:49:34;98146.69;;;25.26;36.20
67818;BME280;54614;47.576;7.524;2022-11-15T02:52:01;98139.91;;;25.23;36.23
67818;BME280;54614;47.576;7.524;2022-11-15T02:54:31;98133.75;;;25.34;36.18
67818;BME280;54614;47.576;7.524;2022-11-15T02:57:12;98134.16;;;25.20;36.52
67818;BME280;54614;47.576;7.524;2022-11-15T03:00:04;98132.03;;;25.22;36.39
67818;BME280;54614;47.576;7.524;2022-11-15T03:11:24;98125.75;;;25.28;36.40
67818;BME280;54614;47.576;7.524;2022-11-15T03:20:01;98131.41;;;25.38;36.28
67818;BME280;54614;47.576;7.524;2022-11-15T03:22:36;98118.72;;;25.27;36.09
67818;BME280;54614;47.576;7.524;2022-11-15T03:25:09;98120.81;;;25.25;36.03
67818;BME280;54614;47.576;7.524;2022-11-15T03:27:41;98116.59;;;25.47;35.81
67818;BME280;54614;47.576;7.524;2022-11-15T03:30:08;98112.81;;;25.36;35.96
67818;BME280;54614;47.576;7.524;2022-11-15T03:32:46;98113.91;;;25.47;35.87
67818;BME280;54614;47.576;7.524;2022-11-15T03:35:18;98123.84;;;25.47;35.67
67818;BME280;54614;47.576;7.524;2022-11-15T03:38:23;98111.38;;;25.64;35.42
67818;BME280;54614;47.576;7.524;2022-11-15T03:41:13;98101.41;;;25.04;36.25
67818;BME280;54614;47.576;7.524;2022-11-15T03:44:15;98117.78;;;24.85;37.10
67818;BME280;54614;47.576;7.524;2022-11-15T03:47:08;98124.47;;;24.39;37.51
67818;BME280;54614;47.576;7.524;2022-11-15T03:49:40;98116.47;;;24.32;37.98
67818;BME280;54614;47.576;7.524;2022-11-15T03:52:10;98115.53;;;24.82;37.22
67818;BME280;54614;47.576;7.524;2022-11-15T03:54:44;98114.13;;;24.97;36.82
67818;BME280;54614;47.576;7.524;2022-11-15T03:57:12;98113.22;;;25.03;36.76
67818;BME280;54614;47.576;7.524;2022-11-15T03:59:38;98121.38;;;25.15;36.43
67818;BME280;54614;47.576;7.524;2022-11-15T04:02:04;98116.13;;;25.20;36.27
67818;BME280;54614;47.576;7.524;2022-11-15T04:04:30;98124.13;;;25.27;36.30
67818;BME280;54614;47.576;7.524;2022-11-15T04:06:55;98114.72;;;25.18;36.42
67818;BME280;54614;47.576;7.524;2022-11-15T04:09:21;98116.44;;;25.12;36.30
67818;BME280;54614;47.576;7.524;2022-11-15T04:11:47;98108.28;;;25.19;36.33
67818;BME280;54614;47.576;7.524;2022-11-15T04:14:13;98112.16;;;25.23;36.36
67818;BME280;54614;47.576;7.524;2022-11-15T04:16:39;98104.72;;;25.36;36.34
67818;BME280;54614;47.576;7.524;2022-11-15T04:19:04;98100.97;;;25.37;36.10
67818;BME280;54614;47.576;7.524;2022-11-15T04:21:48;98099.88;;;25.27;36.15
67818;BME280;54614;47.576;7.524;2022-11-15T04:24:33;98107.06;;;25.33;35.89
67818;BME280;54614;47.576;7.524;2022-11-15T04:26:59;98106.63;;;25.18;36.08
67818;BME280;54614;47.576;7.524;2022-11-15T04:29:25;98106.78;;;25.23;36.35
67818;BME280;54614;47.576;7.524;2022-11-15T04:32:05;98102.25;;;25.05;36.67
67818;BME280;54614;47.576;7.524;2022-11-15T04:34:31;98114.94;;;24.80;37.04
67818;BME280;54614;47.576;7.524;2022-11-15T04:36:58;98103.06;;;25.05;36.87
67818;BME280;54614;47.576;7.524;2022-11-15T04:39:40;98107.94;;;24.97;36.96
67818;BME280;54614;47.576;7.524;2022-11-15T04:42:07;98107.53;;;24.93;36.81
67818;BME280;54614;47.576;7.524;2022-11-15T04:44:33;98104.84;;;24.93;36.97
67818;BME280;54614;47.576;7.524;2022-11-15T04:46:59;98096.31;;;24.96;36.91
67818;BME280;54614;47.576;7.524;2022-11-15T04:49:25;98102.91;;;25.00;36.83
67818;BME280;54614;47.576;7.524;2022-11-15T04:51:51;98093.81;;;25.01;36.82
67818;BME280;54614;47.576;7.524;2022-11-15T04:54:16;98101.72;;;24.78;37.07
67818;BME280;54614;47.576;7.524;2022-11-15T04:56:43;98102.16;;;24.75;37.28
67818;BME280;54614;47.576;7.524;2022-11-15T04:59:08;98088.69;;;24.93;36.91
67818;BME280;54614;47.576;7.524;2022-11-15T05:01:34;98087.38;;;25.02;36.66
67818;BME280;54614;47.576;7.524;2022-11-15T05:04:00;98085.72;;;25.01;36.87
67818;BME280;54614;47.576;7.524;2022-11-15T05:06:46;98085.78;;;25.13;36.62
67818;BME280;54614;47.576;7.524;2022-11-15T05:09:12;98086.25;;;25.10;36.66
67818;BME280;54614;47.576;7.524;2022-11-15T05:11:39;98079.22;;;25.09;36.31
67818;BME280;54614;47.576;7.524;2022-11-15T05:14:05;98077.28;;;24.98;36.81
67818;BME280;54614;47.576;7.524;2022-11-15T05:16:31;98084.13;;;24.39;37.69
67818;BME280;54614;47.576;7.524;2022-11-15T05:18:57;98081.53;;;24.51;37.78
67818;BME280;54614;47.576;7.524;2022-11-15T05:21:23;98080.56;;;24.45;37.69
67818;BME280;54614;47.576;7.524;2022-11-15T05:23:49;98080.25;;;24.35;38.01
67818;BME280;54614;47.576;7.524;2022-11-15T05:26:17;98074.94;;;24.03;38.56
67818;BME280;54614;47.576;7.524;2022-11-15T05:28:44;98075.97;;;24.02;38.71
67818;BME280;54614;47.576;7.524;2022-11-15T05:31:14;98075.44;;;23.94;38.87
67818;BME280;54614;47.576;7.524;2022-11-15T05:33:42;98074.38;;;23.95;38.73
67818;BME280;54614;47.576;7.524;2022-11-15T05:36:36;98070.50;;;23.91;38.88
67818;BME280;54614;47.576;7.524;2022-11-15T05:39:07;98074.66;;;23.87;38.66
67818;BME280;54614;47.576;7.524;2022-11-15T05:41:55;98076.53;;;23.86;39.06
67818;BME280;54614;47.576;7.524;2022-11-15T05:44:23;98069.63;;;23.72;39.12
67818;BME280;54614;47.576;7.524;2022-11-15T05:46:52;98071.47;;;23.71;39.18
67818;BME280;54614;47.576;7.524;2022-11-15T05:49:25;98059.19;;;24.50;37.92
67818;BME280;54614;47.576;7.524;2022-11-15T05:51:53;98054.75;;;24.19;38.31
67818;BME280;54614;47.576;7.524;2022-11-15T05:54:21;98059.38;;;23.87;39.07
67818;BME280;54614;47.576;7.524;2022-11-15T05:56:49;98058.59;;;23.80;38.99
67818;BME280;54614;47.576;7.524;2022-11-15T05:59:15;98058.66;;;23.73;39.22
67818;BME280;54614;47.576;7.524;2022-11-15T06:01:42;98050.53;;;23.80;39.18
67818;BME280;54614;47.576;7.524;2022-11-15T06:04:08;98049.56;;;23.74;39.18
67818;BME280;54614;47.576;7.524;2022-11-15T06:06:34;98050.00;;;23.71;39.21
67818;BME280;54614;47.576;7.524;2022-11-15T06:09:00;98052.91;;;23.70;39.32
67818;BME280;54614;47.576;7.524;2022-11-15T06:11:25;98056.34;;;23.77;39.27
67818;BME280;54614;47.576;7.524;2022-11-15T06:13:51;98050.81;;;23.72;39.30
67818;BME280;54614;47.576;7.524;2022-11-15T06:16:17;98055.75;;;23.75;38.97
67818;BME280;54614;47.576;7.524;2022-11-15T06:18:43;98055.16;;;23.73;39.33
67818;BME280;54614;47.576;7.524;2022-11-15T06:21:09;98051.88;;;23.71;39.33
67818;BME280;54614;47.576;7.524;2022-11-15T06:23:35;98052.19;;;23.81;39.33
67818;BME280;54614;47.576;7.524;2022-11-15T06:26:02;98050.81;;;23.72;39.24
67818;BME280;54614;47.576;7.524;2022-11-15T06:28:33;98052.41;;;23.79;39.44
67818;BME280;54614;47.576;7.524;2022-11-15T06:31:10;98054.03;;;24.30;38.44
67818;BME280;54614;47.576;7.524;2022-11-15T06:33:38;98051.28;;;24.12;39.21
67818;BME280;54614;47.576;7.524;2022-11-15T06:36:10;98048.59;;;24.73;41.41
67818;BME280;54614;47.576;7.524;2022-11-15T06:38:39;98044.22;;;25.39;41.13
67818;BME280;54614;47.576;7.524;2022-11-15T06:41:08;98040.75;;;25.62;39.44
67818;BME280;54614;47.576;7.524;2022-11-15T06:43:35;98042.09;;;25.83;38.80
67818;BME280;54614;47.576;7.524;2022-11-15T06:46:04;98039.22;;;26.19;36.90
67818;BME280;54614;47.576;7.524;2022-11-15T06:48:31;98037.13;;;26.33;35.64
67818;BME280;54614;47.576;7.524;2022-11-15T06:51:00;98040.97;;;26.25;35.97
67818;BME280;54614;47.576;7.524;2022-11-15T06:53:27;98048.25;;;26.48;35.48
67818;BME280;54614;47.576;7.524;2022-11-15T06:55:58;98040.63;;;26.57;35.33
67818;BME280;54614;47.576;7.524;2022-11-15T06:58:24;98039.31;;;26.59;35.40
67818;BME280;54614;47.576;7.524;2022-11-15T07:00:49;98039.97;;;26.78;35.09
67818;BME280;54614;47.576;7.524;2022-11-15T07:03:15;98041.28;;;26.76;34.95
67818;BME280;54614;47.576;7.524;2022-11-15T07:05:41;98036.97;;;26.63;35.19
67818;BME280;54614;47.576;7.524;2022-11-15T07:08:07;98047.00;;;26.79;34.92
67818;BME280;54614;47.576;7.524;2022-11-15T07:10:32;98039.03;;;26.84;34.62
67818;BME280;54614;47.576;7.524;2022-11-15T07:12:58;98042.09;;;26.76;34.93
67818;BME280;54614;47.576;7.524;2022-11-15T07:15:26;98038.91;;;26.79;34.88
67818;BME280;54614;47.576;7.524;2022-11-15T07:17:52;98042.44;;;26.80;34.99
67818;BME280;54614;47.576;7.524;2022-11-15T07:20:18;98041.97;;;26.83;34.81
67818;BME280;54614;47.576;7.524;2022-11-15T07:22:44;98036.56;;;26.83;35.07
67818;BME280;54614;47.576;7.524;2022-11-15T07:25:11;98038.19;;;26.84;34.72
67818;BME280;54614;47.576;7.524;2022-11-15T07:27:37;98032.47;;;26.80;34.88
67818;BME280;54614;47.576;7.524;2022-11-15T07:30:05;98034.19;;;26.86;34.76
67818;BME280;54614;47.576;7.524;2022-11-15T07:32:31;98024.63;;;26.67;35.17
67818;BME280;54614;47.576;7.524;2022-11-15T07:34:57;98028.84;;;26.75;35.18
67818;BME280;54614;47.576;7.524;2022-11-15T07:37:23;98028.00;;;26.86;34.96
67818;BME280;54614;47.576;7.524;2022-11-15T07:39:49;98033.72;;;26.89;34.66
67818;BME280;54614;47.576;7.524;2022-11-15T07:42:15;98034.72;;;26.72;35.11
67818;BME280;54614;47.576;7.524;2022-11-15T07:44:59;98029.19;;;26.78;34.80
67818;BME280;54614;47.576;7.524;2022-11-15T07:47:25;98032.56;;;26.85;34.70
67818;BME280;54614;47.576;7.524;2022-11-15T07:49:53;98035.19;;;26.69;34.98
67818;BME280;54614;47.576;7.524;2022-11-15T07:52:19;98033.41;;;26.74;34.58
67818;BME280;54614;47.576;7.524;2022-11-15T07:54:45;98028.22;;;26.84;34.81
67818;BME280;54614;47.576;7.524;2022-11-15T07:57:11;98035.41;;;26.79;34.57
67818;BME280;54614;47.576;7.524;2022-11-15T07:59:36;98037.72;;;26.87;34.39
67818;BME280;54614;47.576;7.524;2022-11-15T08:02:02;98041.63;;;26.79;34.61
67818;BME280;54614;47.576;7.524;2022-11-15T08:04:28;98046.19;;;26.79;34.63
67818;BME280;54614;47.576;7.524;2022-11-15T08:06:54;98044.44;;;26.73;34.63
67818;BME280;54614;47.576;7.524;2022-11-15T08:09:20;98049.34;;;26.87;34.48
67818;BME280;54614;47.576;7.524;2022-11-15T08:11:46;98047.00;;;26.79;34.51
67818;BME280;54614;47.576;7.524;2022-11-15T08:14:12;98041.84;;;26.78;34.56
67818;BME280;54614;47.576;7.524;2022-11-15T08:16:38;98043.38;;;26.74;34.54
67818;BME280;54614;47.576;7.524;2022-11-15T08:19:04;98033.56;;;26.68;34.37
67818;BME280;54614;47.576;7.524;2022-11-15T08:21:29;98027.34;;;26.67;34.54
67818;BME280;54614;47.576;7.524;2022-11-15T08:23:55;98031.19;;;26.71;34.58
67818;BME280;54614;47.576;7.524;2022-11-15T08:26:21;98030.50;;;26.64;34.57
67818;BME280;54614;47.576;7.524;2022-11-15T08:28:47;98031.88;;;26.78;34.28
67818;BME280;54614;47.576;7.524;2022-11-15T08:31:16;98022.41;;;26.64;34.30
67818;BME280;54614;47.576;7.524;2022-11-15T08:33:43;98018.47;;;26.55;34.52
67818;BME280;54614;47.576;7.524;2022-11-15T08:36:16;98018.38;;;26.78;34.08
67818;BME280;54614;47.576;7.524;2022-11-15T08:38:42;98018.31;;;26.61;34.66
67818;BME280;54614;47.576;7.524;2022-11-15T08:41:19;98020.78;;;26.63;34.59
67818;BME280;54614;47.576;7.524;2022-11-15T08:43:48;98007.16;;;26.70;34.25
67818;BME280;54614;47.576;7.524;2022-11-15T08:46:14;98005.44;;;26.52;34.44
67818;BME280;54614;47.576;7.524;2022-11-15T08:48:40;98003.97;;;26.73;34.28
67818;BME280;54614;47.576;7.524;2022-11-15T08:51:06;98006.94;;;26.59;34.53
67818;BME280;54614;47.576;7.524;2022-11-15T08:53:33;97999.53;;;26.67;34.21
67818;BME280;54614;47.576;7.524;2022-11-15T08:55:59;97996.00;;;26.78;34.36
67818;BME280;54614;47.576;7.524;2022-11-15T08:58:25;97993.09;;;26.68;34.41
67818;BME280;54614;47.576;7.524;2022-11-15T09:00:50;97986.53;;;26.63;34.30
67818;BME280;54614;47.576;7.524;2022-11-15T09:03:16;97987.00;;;26.60;34.18
67818;BME280;54614;47.576;7.524;2022-11-15T09:05:42;97986.97;;;26.72;34.26
67818;BME280;54614;47.576;7.524;2022-11-15T09:08:08;97983.25;;;26.61;34.33
67818;BME280;54614;47.576;7.524;2022-11-15T09:10:34;97982.88;;;26.70;34.22
67818;BME280;54614;47.576;7.524;2022-11-15T09:13:00;97979.47;;;26.74;34.16
67818;BME280;54614;47.576;7.524;2022-11-15T09:15:26;97985.00;;;26.68;34.05
67818;BME280;54614;47.576;7.524;2022-11-15T09:17:51;97979.25;;;26.64;34.26
67818;BME280;54614;47.576;7.524;2022-11-15T09:20:17;97979.47;;;26.74;34.15
67818;BME280;54614;47.576;7.524;2022-11-15T09:22:43;97977.97;;;26.67;34.25
67818;BME280;54614;47.576;7.524;2022-11-15T09:25:09;97974.34;;;26.61;34.19
67818;BME280;54614;47.576;7.524;2022-11-15T09:27:35;97978.44;;;26.63;34.11
67818;BME280;54614;47.576;7.524;2022-11-15T09:30:01;97982.16;;;26.74;34.05
67818;BME280;54614;47.576;7.524;2022-11-15T09:32:30;97973.16;;;26.69;34.00
67818;BME280;54614;47.576;7.524;2022-11-15T09:34:56;97978.63;;;26.74;34.12
67818;BME280;54614;47.576;7.524;2022-11-15T09:37:22;97966.84;;;26.63;34.36
67818;BME280;54614;47.576;7.524;2022-11-15T09:39:48;97970.78;;;26.72;34.25
67818;BME280;54614;47.576;7.524;2022-11-15T09:50:48;97964.94;;;26.63;34.28
67818;BME280;54614;47.576;7.524;2022-11-15T09:53:54;97965.78;;;26.64;34.20
67818;BME280;54614;47.576;7.524;2022-11-15T09:56:27;97956.72;;;26.70;34.29
67818;BME280;54614;47.576;7.524;2022-11-15T10:04:42;97959.75;;;26.74;34.19
67818;BME280;54614;47.576;7.524;2022-11-15T10:10:32;97948.38;;;26.72;34.23
67818;BME280;54614;47.576;7.524;2022-11-15T10:13:02;97944.72;;;26.78;34.15
67818;BME280;54614;47.576;7.524;2022-11-15T10:15:29;97945.53;;;26.78;34.14
67818;BME280;54614;47.576;7.524;2022-11-15T10:21:17;97942.34;;;26.53;34.42
67818;BME280;54614;47.576;7.524;2022-11-15T10:23:45;97939.84;;;26.63;34.17
67818;BME280;54614;47.576;7.524;2022-11-15T10:26:15;97929.59;;;26.77;34.16
67818;BME280;54614;47.576;7.524;2022-11-15T10:28:41;97919.88;;;26.76;34.10
67818;BME280;54614;47.576;7.524;2022-11-15T10:31:25;97920.81;;;26.70;34.14
67818;BME280;54614;47.576;7.524;2022-11-15T10:33:59;97922.72;;;26.69;34.16
67818;BME280;54614;47.576;7.524;2022-11-15T10:36:36;97915.19;;;26.71;34.29
67818;BME280;54614;47.576;7.524;2022-11-15T10:39:03;97907.72;;;26.61;34.32
67818;BME280;54614;47.576;7.524;2022-11-15T10:41:31;97904.06;;;26.68;34.11
67818;BME280;54614;47.576;7.524;2022-11-15T10:44:21;97898.09;;;26.65;34.35
67818;BME280;54614;47.576;7.524;2022-11-15T10:47:04;97897.84;;;26.67;34.22
67818;BME280;54614;47.576;7.524;2022-11-15T10:49:33;97892.47;;;26.67;34.33
67818;BME280;54614;47.576;7.524;2022-11-15T10:52:17;97886.16;;;26.61;34.08
67818;BME280;54614;47.576;7.524;2022-11-15T10:54:49;97885.47;;;26.54;34.43
67818;BME280;54614;47.576;7.524;2022-11-15T10:57:23;97871.94;;;26.66;34.29
67818;BME280;54614;47.576;7.524;2022-11-15T11:00:06;97868.50;;;26.71;34.19
67818;BME280;54614;47.576;7.524;2022-11-15T11:02:55;97868.13;;;26.79;34.22
67818;BME280;54614;47.576;7.524;2022-11-15T11:05:40;97866.44;;;26.61;34.32
67818;BME280;54614;47.576;7.524;2022-11-15T11:08:23;97852.19;;;26.49;34.23
67818;BME280;54614;47.576;7.524;2022-11-15T11:11:00;97839.81;;;26.64;34.17
67818;BME280;54614;47.576;7.524;2022-11-15T11:13:30;97843.66;;;26.69;34.12
67818;BME280;54614;47.576;7.524;2022-11-15T11:18:51;97832.22;;;26.33;34.87
67818;BME280;54614;47.576;7.524;2022-11-15T11:36:03;97794.34;;;26.56;34.48
67818;BME280;54614;47.576;7.524;2022-11-15T11:42:29;97787.66;;;26.59;34.31
67818;BME280;54614;47.576;7.524;2022-11-15T11:50:25;97778.63;;;26.37;34.73
67818;BME280;54614;47.576;7.524;2022-11-15T11:53:11;97779.16;;;26.22;34.99
67818;BME280;54614;47.576;7.524;2022-11-15T11:55:53;97781.19;;;26.43;34.75
67818;BME280;54614;47.576;7.524;2022-11-15T11:58:37;97779.38;;;26.20;35.15
67818;BME280;54614;47.576;7.524;2022-11-15T12:01:32;97758.47;;;26.39;34.56
67818;BME280;54614;47.576;7.524;2022-11-15T12:06:51;97750.84;;;26.36;34.79
67818;BME280;54614;47.576;7.524;2022-11-15T12:09:38;97752.72;;;26.36;34.66
67818;BME280;54614;47.576;7.524;2022-11-15T12:15:57;97756.38;;;25.49;36.42
67818;BME280;54614;47.576;7.524;2022-11-15T12:18:25;97758.97;;;25.96;35.49
67818;BME280;54614;47.576;7.524;2022-11-15T12:21:27;97753.75;;;26.18;35.15
67818;BME280;54614;47.576;7.524;2022-11-15T12:24:00;97751.44;;;26.10;35.07
67818;BME280;54614;47.576;7.524;2022-11-15T12:26:37;97737.47;;;26.41;34.73
67818;BME280;54614;47.576;7.524;2022-11-15T12:29:33;97739.50;;;26.06;35.19
67818;BME280;54614;47.576;7.524;2022-11-15T12:32:01;97737.81;;;26.16;35.00
67818;BME280;54614;47.576;7.524;2022-11-15T12:34:41;97728.63;;;26.46;34.67
67818;BME280;54614;47.576;7.524;2022-11-15T12:45:43;97712.47;;;25.89;35.57
67818;BME280;54614;47.576;7.524;2022-11-15T12:51:02;97704.31;;;25.84;35.72
67818;BME280;54614;47.576;7.524;2022-11-15T12:53:31;97696.56;;;26.16;34.99
67818;BME280;54614;47.576;7.524;2022-11-15T12:56:19;97687.34;;;26.00;35.16
67818;BME280;54614;47.576;7.524;2022-11-15T13:06:46;97678.19;;;23.74;39.75
67818;BME280;54614;47.576;7.524;2022-11-15T13:11:59;97691.19;;;23.59;39.99
67818;BME280;54614;47.576;7.524;2022-11-15T13:14:52;97683.00;;;23.84;39.43
67818;BME280;54614;47.576;7.524;2022-11-15T13:17:35;97680.03;;;24.68;38.00
67818;BME280;54614;47.576;7.524;2022-11-15T13:30:52;97663.41;;;26.15;35.09
67818;BME280;54614;47.576;7.524;2022-11-15T13:33:39;97655.53;;;25.68;35.87
67818;BME280;54614;47.576;7.524;2022-11-15T13:36:20;97656.00;;;25.25;36.84
67818;BME280;54614;47.576;7.524;2022-11-15T13:39:05;97645.78;;;25.39;36.44
67818;BME280;54614;47.576;7.524;2022-11-15T13:41:45;97633.72;;;25.42;36.35
67818;BME280;54614;47.576;7.524;2022-11-15T13:44:25;97628.91;;;25.03;36.97
67818;BME280;54614;47.576;7.524;2022-11-15T13:47:19;97619.81;;;25.33;36.39
67818;BME280;54614;47.576;7.524;2022-11-15T13:49:46;97621.75;;;25.21;36.67
67818;BME280;54614;47.576;7.524;2022-11-15T13:52:14;97615.13;;;25.00;37.18
67818;BME280;54614;47.576;7.524;2022-11-15T13:55:00;97612.56;;;25.62;36.07
67818;BME280;54614;47.576;7.524;2022-11-15T13:57:49;97612.94;;;26.11;35.04
67818;BME280;54614;47.576;7.524;2022-11-15T14:00:40;97601.00;;;26.07;35.20
67818;BME280;54614;47.576;7.524;2022-11-15T14:03:22;97594.06;;;25.37;36.61
67818;BME280;54614;47.576;7.524;2022-11-15T14:06:11;97591.66;;;25.24;36.64
67818;BME280;54614;47.576;7.524;2022-11-15T14:08:39;97581.00;;;25.29;36.48
67818;BME280;54614;47.576;7.524;2022-11-15T14:11:18;97571.41;;;25.21;36.71
67818;BME280;54614;47.576;7.524;2022-11-15T14:14:12;97584.09;;;25.09;36.86
67818;BME280;54614;47.576;7.524;2022-11-15T14:16:46;97578.78;;;25.26;36.69
67818;BME280;54614;47.576;7.524;2022-11-15T14:19:35;97579.34;;;24.99;37.13
67818;BME280;54614;47.576;7.524;2022-11-15T14:22:16;97574.50;;;25.70;35.83
67818;BME280;54614;47.576;7.524;2022-11-15T14:24:46;97571.28;;;26.18;35.12
67818;BME280;54614;47.576;7.524;2022-11-15T14:27:26;97571.84;;;26.04;35.31
67818;BME280;54614;47.576;7.524;2022-11-15T14:29:52;97578.34;;;25.46;36.12
67818;BME280;54614;47.576;7.524;2022-11-15T14:32:23;97567.09;;;25.20;36.84
67818;BME280;54614;47.576;7.524;2022-11-15T14:35:00;97562.19;;;25.17;36.91
67818;BME280;54614;47.576;7.524;2022-11-15T14:37:33;97561.47;;;25.22;36.61
67818;BME280;54614;47.576;7.524;2022-11-15T14:40:05;97554.88;;;25.29;36.74
67818;BME280;54614;47.576;7.524;2022-11-15T14:42:32;97553.53;;;25.15;36.77
67818;BME280;54614;47.576;7.524;2022-11-15T14:44:58;97546.34;;;25.04;36.99
67818;BME280;54614;47.576;7.524;2022-11-15T14:47:24;97543.25;;;25.12;37.09
67818;BME280;54614;47.576;7.524;2022-11-15T14:49:50;97549.44;;;25.41;36.39
67818;BME280;54614;47.576;7.524;2022-11-15T14:52:32;97543.75;;;26.16;34.89
67818;BME280;54614;47.576;7.524;2022-11-15T14:55:09;97538.19;;;25.73;35.79
67818;BME280;54614;47.576;7.524;2022-11-15T14:57:37;97536.97;;;25.35;36.48
67818;BME280;54614;47.576;7.524;2022-11-15T15:00:04;97530.66;;;25.29;36.42
67818;BME280;54614;47.576;7.524;2022-11-15T15:02:31;97533.69;;;25.04;37.04
67818;BME280;54614;47.576;7.524;2022-11-15T15:04:57;97531.59;;;24.95;37.45
67818;BME280;54614;47.576;7.524;2022-11-15T15:07:26;97527.34;;;25.11;36.81
67818;BME280;54614;47.576;7.524;2022-11-15T15:09:52;97515.22;;;24.96;37.32
67818;BME280;54614;47.576;7.524;2022-11-15T15:12:21;97515.59;;;25.00;37.25
67818;BME280;54614;47.576;7.524;2022-11-15T15:14:50;97509.44;;;25.16;36.61
67818;BME280;54614;47.576;7.524;2022-11-15T15:17:17;97492.59;;;25.54;36.14
67818;BME280;54614;47.576;7.524;2022-11-15T15:19:43;97494.66;;;26.14;34.88